sensor_id;sensor_type;location;lat;lon;timestamp;pressure;altitude;pressure_sealevel;temperature;humidity
80777;BME280;70169;51.262;6.336;2023-07-29T00:00:36;100247.00;;;18.63;88.23
80777;BME280;70169;51.262;6.336;2023-07-29T00:02:51;100240.81;;;18.63;88.26
80777;BME280;70169;51.262;6.336;2023-07-29T00:05:07;100238.97;;;18.63;88.12
80777;BME280;70169;51.262;6.336;2023-07-29T00:07:22;100235.47;;;18.63;87.98
80777;BME280;70169;51.262;6.336;2023-07-29T00:09:37;100228.53;;;18.62;88.03
80777;BME280;70169;51.262;6.336;2023-07-29T00:11:53;100229.31;;;18.62;88.08
80777;BME280;70169;51.262;6.336;2023-07-29T00:14:08;100220.75;;;18.60;88.28
80777;BME280;70169;51.262;6.336;2023-07-29T00:16:23;100225.59;;;18.63;88.12
80777;BME280;70169;51.262;6.336;2023-07-29T00:18:39;100206.59;;;18.59;88.16
80777;BME280;70169;51.262;6.336;2023-07-29T00:20:54;100215.66;;;18.64;88.26
80777;BME280;70169;51.262;6.336;2023-07-29T00:23:10;100214.59;;;18.65;88.23
80777;BME280;70169;51.262;6.336;2023-07-29T00:25:26;100221.56;;;18.66;88.43
80777;BME280;70169;51.262;6.336;2023-07-29T00:27:42;100213.00;;;18.69;88.25
80777;BME280;70169;51.262;6.336;2023-07-29T00:29:57;100213.53;;;18.66;88.18
80777;BME280;70169;51.262;6.336;2023-07-29T00:32:12;100224.25;;;18.71;88.11
80777;BME280;70169;51.262;6.336;2023-07-29T00:34:28;100218.63;;;18.72;88.33
80777;BME280;70169;51.262;6.336;2023-07-29T00:36:43;100216.75;;;18.73;88.34
80777;BME280;70169;51.262;6.336;2023-07-29T00:38:58;100206.31;;;18.71;88.14
80777;BME280;70169;51.262;6.336;2023-07-29T00:41:14;100211.94;;;18.75;88.36
80777;BME280;70169;51.262;6.336;2023-07-29T00:43:29;100210.88;;;18.76;87.87
80777;BME280;70169;51.262;6.336;2023-07-29T00:45:45;100215.41;;;18.75;87.90
80777;BME280;70169;51.262;6.336;2023-07-29T00:48:02;100209.78;;;18.77;87.85
80777;BME280;70169;51.262;6.336;2023-07-29T00:50:18;100206.06;;;18.78;88.30
80777;BME280;70169;51.262;6.336;2023-07-29T00:52:33;100203.63;;;18.76;88.24
80777;BME280;70169;51.262;6.336;2023-07-29T00:54:49;100211.13;;;18.80;88.05
80777;BME280;70169;51.262;6.336;2023-07-29T00:57:05;100206.06;;;18.78;87.84
80777;BME280;70169;51.262;6.336;2023-07-29T00:59:22;100207.09;;;18.77;87.94
80777;BME280;70169;51.262;6.336;2023-07-29T01:01:38;100202.84;;;18.76;88.10
80777;BME280;70169;51.262;6.336;2023-07-29T01:03:53;100202.84;;;18.76;88.52
80777;BME280;70169;51.262;6.336;2023-07-29T01:06:18;100189.47;;;18.76;88.18
80777;BME280;70169;51.262;6.336;2023-07-29T01:08:46;100186.78;;;18.76;88.06
80777;BME280;70169;51.262;6.336;2023-07-29T01:11:16;100188.38;;;18.77;88.10
80777;BME280;70169;51.262;6.336;2023-07-29T01:13:47;100195.34;;;18.78;88.16
80777;BME280;70169;51.262;6.336;2023-07-29T01:16:12;100196.13;;;18.78;88.09
80777;BME280;70169;51.262;6.336;2023-07-29T01:18:31;100192.13;;;18.76;87.96
80777;BME280;70169;51.262;6.336;2023-07-29T01:20:47;100195.06;;;18.80;88.04
80777;BME280;70169;51.262;6.336;2023-07-29T01:23:03;100199.63;;;18.79;87.92
80777;BME280;70169;51.262;6.336;2023-07-29T01:25:18;100184.91;;;18.76;87.83
80777;BME280;70169;51.262;6.336;2023-07-29T01:27:34;100185.16;;;18.75;87.78
80777;BME280;70169;51.262;6.336;2023-07-29T01:29:49;100180.06;;;18.73;88.10
80777;BME280;70169;51.262;6.336;2023-07-29T01:32:11;100186.22;;;18.74;88.26
80777;BME280;70169;51.262;6.336;2023-07-29T01:34:34;100192.41;;;18.74;88.28
80777;BME280;70169;51.262;6.336;2023-07-29T01:36:51;100195.06;;;18.74;88.33
80777;BME280;70169;51.262;6.336;2023-07-29T01:39:10;100193.47;;;18.73;88.19
80777;BME280;70169;51.262;6.336;2023-07-29T01:41:26;100171.50;;;18.71;88.17
80777;BME280;70169;51.262;6.336;2023-07-29T01:43:42;100168.56;;;18.73;88.32
80777;BME280;70169;51.262;6.336;2023-07-29T01:46:00;100171.50;;;18.71;88.41
80777;BME280;70169;51.262;6.336;2023-07-29T01:48:16;100159.19;;;18.70;88.37
80777;BME280;70169;51.262;6.336;2023-07-29T01:50:31;100151.69;;;18.67;88.31
80777;BME280;70169;51.262;6.336;2023-07-29T01:52:49;100152.50;;;18.68;88.44
80777;BME280;70169;51.262;6.336;2023-07-29T01:55:05;100165.38;;;18.71;88.68
80777;BME280;70169;51.262;6.336;2023-07-29T01:57:20;100176.34;;;18.69;88.49
80777;BME280;70169;51.262;6.336;2023-07-29T01:59:36;100179.00;;;18.69;88.40
80777;BME280;70169;51.262;6.336;2023-07-29T02:01:51;100166.44;;;18.65;88.44
80777;BME280;70169;51.262;6.336;2023-07-29T02:04:06;100175.78;;;18.67;88.76
80777;BME280;70169;51.262;6.336;2023-07-29T02:06:22;100176.88;;;18.66;89.00
80777;BME280;70169;51.262;6.336;2023-07-29T02:08:38;100177.66;;;18.67;88.80
80777;BME280;70169;51.262;6.336;2023-07-29T02:10:55;100179.53;;;18.66;88.93
80777;BME280;70169;51.262;6.336;2023-07-29T02:13:12;100173.63;;;18.64;88.79
80777;BME280;70169;51.262;6.336;2023-07-29T02:15:27;100163.19;;;18.63;89.12
80777;BME280;70169;51.262;6.336;2023-07-29T02:17:43;100172.31;;;18.67;88.92
80777;BME280;70169;51.262;6.336;2023-07-29T02:19:58;100180.34;;;18.67;89.12
80777;BME280;70169;51.262;6.336;2023-07-29T02:22:16;100180.88;;;18.69;89.04
80777;BME280;70169;51.262;6.336;2023-07-29T02:24:32;100190.00;;;18.68;88.90
80777;BME280;70169;51.262;6.336;2023-07-29T02:26:47;100178.19;;;18.69;89.33
80777;BME280;70169;51.262;6.336;2023-07-29T02:29:03;100177.94;;;18.65;89.19
80777;BME280;70169;51.262;6.336;2023-07-29T02:31:22;100186.22;;;18.69;89.02
80777;BME280;70169;51.262;6.336;2023-07-29T02:33:38;100187.03;;;18.69;89.19
80777;BME280;70169;51.262;6.336;2023-07-29T02:35:53;100189.16;;;18.67;89.11
80777;BME280;70169;51.262;6.336;2023-07-29T02:38:08;100188.91;;;18.64;89.24
80777;BME280;70169;51.262;6.336;2023-07-29T02:40:24;100194.00;;;18.65;89.29
80777;BME280;70169;51.262;6.336;2023-07-29T02:42:41;100195.06;;;18.64;89.32
80777;BME280;70169;51.262;6.336;2023-07-29T02:44:57;100197.19;;;18.62;89.60
80777;BME280;70169;51.262;6.336;2023-07-29T02:47:12;100179.81;;;18.59;89.66
80777;BME280;70169;51.262;6.336;2023-07-29T02:49:27;100176.06;;;18.61;89.77
80777;BME280;70169;51.262;6.336;2023-07-29T02:51:43;100173.38;;;18.61;89.78
80777;BME280;70169;51.262;6.336;2023-07-29T02:53:58;100188.38;;;18.62;89.75
80777;BME280;70169;51.262;6.336;2023-07-29T02:56:14;100183.28;;;18.60;90.01
80777;BME280;70169;51.262;6.336;2023-07-29T02:58:29;100168.81;;;18.61;90.03
80777;BME280;70169;51.262;6.336;2023-07-29T03:00:44;100168.03;;;18.61;89.70
80777;BME280;70169;51.262;6.336;2023-07-29T03:02:59;100163.75;;;18.59;89.75
80777;BME280;70169;51.262;6.336;2023-07-29T03:05:15;100159.47;;;18.58;89.63
80777;BME280;70169;51.262;6.336;2023-07-29T03:07:30;100158.66;;;18.58;89.90
80777;BME280;70169;51.262;6.336;2023-07-29T03:09:45;100172.06;;;18.58;89.62
80777;BME280;70169;51.262;6.336;2023-07-29T03:12:01;100166.66;;;18.53;89.82
80777;BME280;70169;51.262;6.336;2023-07-29T03:14:16;100176.06;;;18.55;89.75
80777;BME280;70169;51.262;6.336;2023-07-29T03:16:31;100172.28;;;18.51;89.66
80777;BME280;70169;51.262;6.336;2023-07-29T03:18:48;100174.97;;;18.51;89.61
80777;BME280;70169;51.262;6.336;2023-07-29T03:21:04;100176.06;;;18.50;89.46
80777;BME280;70169;51.262;6.336;2023-07-29T03:23:19;100177.09;;;18.49;89.39
80777;BME280;70169;51.262;6.336;2023-07-29T03:25:34;100170.16;;;18.48;89.25
80777;BME280;70169;51.262;6.336;2023-07-29T03:27:49;100175.22;;;18.45;89.51
80777;BME280;70169;51.262;6.336;2023-07-29T03:30:05;100162.63;;;18.40;88.88
80777;BME280;70169;51.262;6.336;2023-07-29T03:32:21;100166.13;;;18.35;88.89
80777;BME280;70169;51.262;6.336;2023-07-29T03:34:36;100178.41;;;18.36;89.39
80777;BME280;70169;51.262;6.336;2023-07-29T03:36:52;100182.19;;;18.35;89.31
80777;BME280;70169;51.262;6.336;2023-07-29T03:39:07;100179.78;;;18.34;88.89
80777;BME280;70169;51.262;6.336;2023-07-29T03:41:22;100168.50;;;18.32;89.20
80777;BME280;70169;51.262;6.336;2023-07-29T03:43:38;100164.50;;;18.29;89.04
80777;BME280;70169;51.262;6.336;2023-07-29T03:45:53;100161.53;;;18.26;88.70
80777;BME280;70169;51.262;6.336;2023-07-29T03:48:08;100169.28;;;18.22;88.78
80777;BME280;70169;51.262;6.336;2023-07-29T03:50:24;100170.09;;;18.17;88.94
80777;BME280;70169;51.262;6.336;2023-07-29T03:52:39;100173.00;;;18.16;88.54
80777;BME280;70169;51.262;6.336;2023-07-29T03:54:54;100183.44;;;18.12;88.57
80777;BME280;70169;51.262;6.336;2023-07-29T03:57:10;100184.78;;;18.10;88.47
80777;BME280;70169;51.262;6.336;2023-07-29T03:59:25;100185.56;;;18.05;88.42
80777;BME280;70169;51.262;6.336;2023-07-29T04:01:40;100185.00;;;18.03;88.32
80777;BME280;70169;51.262;6.336;2023-07-29T04:03:56;100173.00;;;18.00;88.68
80777;BME280;70169;51.262;6.336;2023-07-29T04:06:12;100181.00;;;18.00;88.59
80777;BME280;70169;51.262;6.336;2023-07-29T04:08:27;100184.75;;;17.99;88.60
80777;BME280;70169;51.262;6.336;2023-07-29T04:10:42;100181.00;;;17.95;88.12
80777;BME280;70169;51.262;6.336;2023-07-29T04:12:58;100194.38;;;17.95;88.05
80777;BME280;70169;51.262;6.336;2023-07-29T04:15:13;100206.13;;;17.94;87.92
80777;BME280;70169;51.262;6.336;2023-07-29T04:17:28;100201.00;;;17.88;87.71
80777;BME280;70169;51.262;6.336;2023-07-29T04:19:44;100219.72;;;17.88;87.92
80777;BME280;70169;51.262;6.336;2023-07-29T04:21:59;100214.38;;;17.88;88.52
80777;BME280;70169;51.262;6.336;2023-07-29T04:24:15;100211.72;;;17.88;88.04
80777;BME280;70169;51.262;6.336;2023-07-29T04:26:30;100210.63;;;17.89;88.33
80777;BME280;70169;51.262;6.336;2023-07-29T04:28:45;100215.72;;;17.90;88.40
80777;BME280;70169;51.262;6.336;2023-07-29T04:31:00;100207.44;;;17.92;88.31
80777;BME280;70169;51.262;6.336;2023-07-29T04:33:16;100203.69;;;17.93;88.46
80777;BME280;70169;51.262;6.336;2023-07-29T04:38:43;100193.53;;;17.95;88.42
80777;BME280;70169;51.262;6.336;2023-07-29T04:40:59;100187.41;;;17.94;88.36
80777;BME280;70169;51.262;6.336;2023-07-29T04:43:17;100188.19;;;17.95;88.23
80777;BME280;70169;51.262;6.336;2023-07-29T04:45:32;100186.34;;;18.00;88.18
80777;BME280;70169;51.262;6.336;2023-07-29T04:47:47;100173.00;;;18.00;87.91
80777;BME280;70169;51.262;6.336;2023-07-29T04:50:03;100180.75;;;18.02;87.85
80777;BME280;70169;51.262;6.336;2023-07-29T04:52:18;100180.75;;;18.02;87.72
80777;BME280;70169;51.262;6.336;2023-07-29T04:54:34;100170.84;;;17.97;87.58
80777;BME280;70169;51.262;6.336;2023-07-29T04:56:50;100186.09;;;18.02;87.80
80777;BME280;70169;51.262;6.336;2023-07-29T04:59:05;100194.38;;;18.00;87.67
80777;BME280;70169;51.262;6.336;2023-07-29T05:01:22;100207.75;;;18.00;87.36
80777;BME280;70169;51.262;6.336;2023-07-29T05:03:38;100214.66;;;17.96;87.26
80777;BME280;70169;51.262;6.336;2023-07-29T05:05:54;100218.13;;;17.92;86.87
80777;BME280;70169;51.262;6.336;2023-07-29T05:08:11;100226.66;;;17.89;86.89
80777;BME280;70169;51.262;6.336;2023-07-29T05:10:26;100220.72;;;17.81;86.71
80777;BME280;70169;51.262;6.336;2023-07-29T05:12:41;100229.25;;;17.78;86.47
80777;BME280;70169;51.262;6.336;2023-07-29T05:14:57;100245.31;;;17.78;86.52
80777;BME280;70169;51.262;6.336;2023-07-29T05:17:19;100249.28;;;17.76;86.38
80777;BME280;70169;51.262;6.336;2023-07-29T05:19:34;100240.47;;;17.75;86.38
80777;BME280;70169;51.262;6.336;2023-07-29T05:21:49;100228.44;;;17.73;86.24
80777;BME280;70169;51.262;6.336;2023-07-29T05:24:05;100233.22;;;17.71;86.02
80777;BME280;70169;51.262;6.336;2023-07-29T05:26:20;100219.31;;;17.68;85.88
80777;BME280;70169;51.262;6.336;2023-07-29T05:28:35;100219.59;;;17.67;86.01
80777;BME280;70169;51.262;6.336;2023-07-29T05:30:51;100227.84;;;17.65;86.19
80777;BME280;70169;51.262;6.336;2023-07-29T05:33:06;100239.34;;;17.66;86.21
80777;BME280;70169;51.262;6.336;2023-07-29T05:35:24;100232.41;;;17.65;85.89
80777;BME280;70169;51.262;6.336;2023-07-29T05:37:58;100236.13;;;17.64;86.33
80777;BME280;70169;51.262;6.336;2023-07-29T05:40:13;100247.91;;;17.63;85.84
80777;BME280;70169;51.262;6.336;2023-07-29T05:42:28;100245.50;;;17.61;85.95
80777;BME280;70169;51.262;6.336;2023-07-29T05:44:44;100238.50;;;17.55;86.00
80777;BME280;70169;51.262;6.336;2023-07-29T05:46:59;100249.47;;;17.59;86.15
80777;BME280;70169;51.262;6.336;2023-07-29T05:49:14;100247.59;;;17.59;86.17
80777;BME280;70169;51.262;6.336;2023-07-29T05:51:30;100252.44;;;17.62;85.95
80777;BME280;70169;51.262;6.336;2023-07-29T05:53:45;100259.13;;;17.65;85.19
80777;BME280;70169;51.262;6.336;2023-07-29T05:56:00;100261.03;;;17.70;85.75
80777;BME280;70169;51.262;6.336;2023-07-29T05:58:16;100272.00;;;17.73;85.84
80777;BME280;70169;51.262;6.336;2023-07-29T06:00:32;100267.44;;;17.68;84.90
80777;BME280;70169;51.262;6.336;2023-07-29T06:02:47;100267.72;;;17.72;84.62
80777;BME280;70169;51.262;6.336;2023-07-29T06:05:03;100260.78;;;17.71;84.71
80777;BME280;70169;51.262;6.336;2023-07-29T06:07:19;100259.94;;;17.65;83.89
80777;BME280;70169;51.262;6.336;2023-07-29T06:09:34;100267.91;;;17.60;83.86
80777;BME280;70169;51.262;6.336;2023-07-29T06:11:50;100263.94;;;17.63;83.91
80777;BME280;70169;51.262;6.336;2023-07-29T06:14:11;100269.00;;;17.64;83.89
80777;BME280;70169;51.262;6.336;2023-07-29T06:16:26;100274.66;;;17.68;83.98
80777;BME280;70169;51.262;6.336;2023-07-29T06:18:41;100281.38;;;17.76;83.83
80777;BME280;70169;51.262;6.336;2023-07-29T06:20:57;100276.66;;;17.88;83.67
80777;BME280;70169;51.262;6.336;2023-07-29T06:23:12;100273.25;;;17.98;82.80
80777;BME280;70169;51.262;6.336;2023-07-29T06:25:27;100266.63;;;18.16;83.09
80777;BME280;70169;51.262;6.336;2023-07-29T06:27:43;100256.00;;;18.36;82.99
80777;BME280;70169;51.262;6.336;2023-07-29T06:29:58;100258.19;;;18.50;82.68
80777;BME280;70169;51.262;6.336;2023-07-29T06:32:13;100265.44;;;18.54;82.02
80777;BME280;70169;51.262;6.336;2023-07-29T06:34:29;100271.09;;;18.58;81.16
80777;BME280;70169;51.262;6.336;2023-07-29T06:36:44;100271.63;;;18.60;80.64
80777;BME280;70169;51.262;6.336;2023-07-29T06:38:59;100276.44;;;18.63;81.21
80777;BME280;70169;51.262;6.336;2023-07-29T06:41:14;100264.09;;;18.57;79.98
80777;BME280;70169;51.262;6.336;2023-07-29T06:43:30;100274.03;;;18.56;80.27
80777;BME280;70169;51.262;6.336;2023-07-29T06:45:45;100276.69;;;18.56;80.30
80777;BME280;70169;51.262;6.336;2023-07-29T06:48:00;100271.03;;;18.53;80.07
80777;BME280;70169;51.262;6.336;2023-07-29T06:50:16;100264.34;;;18.45;80.17
80777;BME280;70169;51.262;6.336;2023-07-29T06:52:31;100272.38;;;18.45;79.98
80777;BME280;70169;51.262;6.336;2023-07-29T06:54:46;100268.34;;;18.43;79.67
80777;BME280;70169;51.262;6.336;2023-07-29T06:57:02;100275.88;;;18.51;79.72
80777;BME280;70169;51.262;6.336;2023-07-29T06:59:17;100276.97;;;18.60;79.92
80777;BME280;70169;51.262;6.336;2023-07-29T07:01:33;100272.16;;;18.67;79.70
80777;BME280;70169;51.262;6.336;2023-07-29T07:03:49;100270.84;;;18.70;79.33
80777;BME280;70169;51.262;6.336;2023-07-29T07:06:04;100274.03;;;18.77;78.90
80777;BME280;70169;51.262;6.336;2023-07-29T07:08:23;100273.50;;;18.80;78.65
80777;BME280;70169;51.262;6.336;2023-07-29T07:10:38;100273.25;;;18.82;77.58
80777;BME280;70169;51.262;6.336;2023-07-29T07:12:54;100282.41;;;18.86;77.83
80777;BME280;70169;51.262;6.336;2023-07-29T07:15:09;100280.78;;;18.90;78.19
80777;BME280;70169;51.262;6.336;2023-07-29T07:17:25;100283.75;;;18.99;78.16
80777;BME280;70169;51.262;6.336;2023-07-29T07:19:40;100293.13;;;18.96;76.42
80777;BME280;70169;51.262;6.336;2023-07-29T07:21:55;100283.47;;;18.90;76.44
80777;BME280;70169;51.262;6.336;2023-07-29T07:24:11;100280.50;;;18.81;75.83
80777;BME280;70169;51.262;6.336;2023-07-29T07:26:26;100283.69;;;18.78;75.61
80777;BME280;70169;51.262;6.336;2023-07-29T07:28:42;100277.75;;;18.66;75.57
80777;BME280;70169;51.262;6.336;2023-07-29T07:30:57;100275.88;;;18.61;75.87
80777;BME280;70169;51.262;6.336;2023-07-29T07:33:12;100286.03;;;18.54;75.97
80777;BME280;70169;51.262;6.336;2023-07-29T07:35:28;100278.00;;;18.49;75.78
80777;BME280;70169;51.262;6.336;2023-07-29T07:37:43;100286.31;;;18.52;76.22
80777;BME280;70169;51.262;6.336;2023-07-29T07:39:58;100281.22;;;18.56;76.11
80777;BME280;70169;51.262;6.336;2023-07-29T07:42:14;100279.38;;;18.62;76.61
80777;BME280;70169;51.262;6.336;2023-07-29T07:44:29;100283.94;;;18.66;76.59
80777;BME280;70169;51.262;6.336;2023-07-29T07:46:45;100279.66;;;18.70;75.97
80777;BME280;70169;51.262;6.336;2023-07-29T07:49:00;100275.66;;;18.73;74.99
80777;BME280;70169;51.262;6.336;2023-07-29T07:51:15;100277.53;;;18.77;74.99
80777;BME280;70169;51.262;6.336;2023-07-29T07:53:31;100278.94;;;18.85;75.16
80777;BME280;70169;51.262;6.336;2023-07-29T07:55:46;100273.56;;;18.90;75.41
80777;BME280;70169;51.262;6.336;2023-07-29T07:58:02;100277.34;;;19.05;75.86
80777;BME280;70169;51.262;6.336;2023-07-29T08:00:17;100282.16;;;19.13;75.02
80777;BME280;70169;51.262;6.336;2023-07-29T08:02:34;100286.97;;;19.26;75.49
80777;BME280;70169;51.262;6.336;2023-07-29T08:04:49;100282.44;;;19.37;74.67
80777;BME280;70169;51.262;6.336;2023-07-29T08:07:05;100278.66;;;19.54;74.18
80777;BME280;70169;51.262;6.336;2023-07-29T08:09:26;100292.84;;;19.70;73.24
80777;BME280;70169;51.262;6.336;2023-07-29T08:11:42;100296.31;;;19.75;71.87
80777;BME280;70169;51.262;6.336;2023-07-29T08:13:58;100287.47;;;19.80;71.95
80777;BME280;70169;51.262;6.336;2023-07-29T08:16:13;100278.09;;;19.82;72.46
80777;BME280;70169;51.262;6.336;2023-07-29T08:18:29;100288.00;;;19.92;73.00
80777;BME280;70169;51.262;6.336;2023-07-29T08:20:57;100278.31;;;19.96;72.51
80777;BME280;70169;51.262;6.336;2023-07-29T08:23:13;100278.03;;;19.98;72.12
80777;BME280;70169;51.262;6.336;2023-07-29T08:25:28;100284.47;;;20.07;71.19
80777;BME280;70169;51.262;6.336;2023-07-29T08:27:44;100279.34;;;20.11;70.42
80777;BME280;70169;51.262;6.336;2023-07-29T08:29:59;100275.31;;;20.13;71.62
80777;BME280;70169;51.262;6.336;2023-07-29T08:32:14;100293.28;;;20.18;71.85
80777;BME280;70169;51.262;6.336;2023-07-29T08:34:30;100281.75;;;20.17;71.33
80777;BME280;70169;51.262;6.336;2023-07-29T08:36:45;100286.06;;;20.13;71.11
80777;BME280;70169;51.262;6.336;2023-07-29T08:39:00;100290.34;;;20.14;71.81
80777;BME280;70169;51.262;6.336;2023-07-29T08:41:25;100289.53;;;20.14;72.02
80777;BME280;70169;51.262;6.336;2023-07-29T08:44:11;100297.59;;;20.14;71.71
80777;BME280;70169;51.262;6.336;2023-07-29T08:46:30;100304.84;;;20.13;71.37
80777;BME280;70169;51.262;6.336;2023-07-29T08:48:46;100300.00;;;20.15;71.61
80777;BME280;70169;51.262;6.336;2023-07-29T08:51:03;100302.97;;;20.09;71.77
80777;BME280;70169;51.262;6.336;2023-07-29T08:53:19;100311.28;;;20.07;72.50
80777;BME280;70169;51.262;6.336;2023-07-29T08:55:34;100308.63;;;20.02;71.54
80777;BME280;70169;51.262;6.336;2023-07-29T08:57:50;100314.03;;;19.92;71.75
80777;BME280;70169;51.262;6.336;2023-07-29T09:00:08;100316.97;;;19.85;71.68
80777;BME280;70169;51.262;6.336;2023-07-29T09:02:23;100307.03;;;19.75;72.14
80777;BME280;70169;51.262;6.336;2023-07-29T09:04:39;100315.66;;;19.77;72.32
80777;BME280;70169;51.262;6.336;2023-07-29T09:06:55;100323.44;;;19.84;72.33
80777;BME280;70169;51.262;6.336;2023-07-29T09:09:11;100315.06;;;19.96;72.55
80777;BME280;70169;51.262;6.336;2023-07-29T09:11:28;100318.78;;;20.10;72.11
80777;BME280;70169;51.262;6.336;2023-07-29T09:13:43;100309.34;;;20.28;72.57
80777;BME280;70169;51.262;6.336;2023-07-29T09:15:59;100316.81;;;20.42;71.40
80777;BME280;70169;51.262;6.336;2023-07-29T09:18:16;100318.09;;;20.49;71.07
80777;BME280;70169;51.262;6.336;2023-07-29T09:20:33;100311.63;;;20.55;70.74
80777;BME280;70169;51.262;6.336;2023-07-29T09:22:49;100316.47;;;20.53;69.90
80777;BME280;70169;51.262;6.336;2023-07-29T09:25:04;100308.97;;;20.50;70.12
80777;BME280;70169;51.262;6.336;2023-07-29T09:27:31;100305.25;;;20.41;70.08
80777;BME280;70169;51.262;6.336;2023-07-29T09:29:48;100304.50;;;20.35;70.83
80777;BME280;70169;51.262;6.336;2023-07-29T09:32:22;100294.84;;;20.29;71.54
80777;BME280;70169;51.262;6.336;2023-07-29T09:34:41;100290.25;;;20.35;71.45
80777;BME280;70169;51.262;6.336;2023-07-29T09:36:57;100285.66;;;20.46;71.16
80777;BME280;70169;51.262;6.336;2023-07-29T09:39:12;100290.69;;;20.57;71.19
80777;BME280;70169;51.262;6.336;2023-07-29T09:41:30;100289.28;;;20.75;71.19
80777;BME280;70169;51.262;6.336;2023-07-29T09:43:55;100286.72;;;20.94;70.67
80777;BME280;70169;51.262;6.336;2023-07-29T09:46:10;100296.56;;;21.09;69.33
80777;BME280;70169;51.262;6.336;2023-07-29T09:48:26;100283.13;;;21.09;67.33
80777;BME280;70169;51.262;6.336;2023-07-29T09:50:41;100285.00;;;21.09;67.94
80777;BME280;70169;51.262;6.336;2023-07-29T09:52:56;100288.78;;;21.08;68.36
80777;BME280;70169;51.262;6.336;2023-07-29T09:55:18;100295.50;;;21.05;69.30
80777;BME280;70169;51.262;6.336;2023-07-29T09:57:34;100286.44;;;21.01;69.13
80777;BME280;70169;51.262;6.336;2023-07-29T09:59:57;100285.94;;;20.94;69.10
80777;BME280;70169;51.262;6.336;2023-07-29T10:02:20;100293.94;;;20.99;69.47
80777;BME280;70169;51.262;6.336;2023-07-29T10:04:36;100290.38;;;21.09;70.51
80777;BME280;70169;51.262;6.336;2023-07-29T10:06:52;100295.47;;;21.16;70.18
80777;BME280;70169;51.262;6.336;2023-07-29T10:09:07;100299.44;;;21.18;69.29
80777;BME280;70169;51.262;6.336;2023-07-29T10:11:23;100300.28;;;21.13;67.65
80777;BME280;70169;51.262;6.336;2023-07-29T10:13:40;100303.28;;;21.07;68.39
80777;BME280;70169;51.262;6.336;2023-07-29T10:15:55;100303.81;;;21.09;68.76
80777;BME280;70169;51.262;6.336;2023-07-29T10:18:14;100307.00;;;21.16;68.96
80777;BME280;70169;51.262;6.336;2023-07-29T10:20:30;100309.09;;;21.24;69.01
80777;BME280;70169;51.262;6.336;2023-07-29T10:22:47;100304.72;;;21.34;68.97
80777;BME280;70169;51.262;6.336;2023-07-29T10:25:05;100296.59;;;21.39;68.52
80777;BME280;70169;51.262;6.336;2023-07-29T10:27:24;100292.00;;;21.39;66.92
80777;BME280;70169;51.262;6.336;2023-07-29T10:29:43;100292.06;;;21.34;65.94
80777;BME280;70169;51.262;6.336;2023-07-29T10:32:01;100298.78;;;21.31;66.59
80777;BME280;70169;51.262;6.336;2023-07-29T10:34:18;100306.91;;;21.26;66.60
80777;BME280;70169;51.262;6.336;2023-07-29T10:36:37;100309.31;;;21.28;67.16
80777;BME280;70169;51.262;6.336;2023-07-29T10:42:05;100305.63;;;21.19;66.02
80777;BME280;70169;51.262;6.336;2023-07-29T10:46:55;100307.38;;;20.99;67.22
80777;BME280;70169;51.262;6.336;2023-07-29T10:49:11;100311.75;;;20.90;67.32
80777;BME280;70169;51.262;6.336;2023-07-29T10:51:36;100307.25;;;20.80;67.54
80777;BME280;70169;51.262;6.336;2023-07-29T10:53:54;100317.41;;;20.83;67.76
80777;BME280;70169;51.262;6.336;2023-07-29T10:56:09;100303.97;;;20.88;66.15
80777;BME280;70169;51.262;6.336;2023-07-29T10:58:25;100300.69;;;20.97;66.55
80777;BME280;70169;51.262;6.336;2023-07-29T11:00:49;100293.09;;;21.04;66.01
80777;BME280;70169;51.262;6.336;2023-07-29T11:03:08;100291.63;;;21.22;65.98
80777;BME280;70169;51.262;6.336;2023-07-29T11:05:23;100292.06;;;21.34;65.16
80777;BME280;70169;51.262;6.336;2023-07-29T11:07:46;100288.75;;;21.42;64.69
80777;BME280;70169;51.262;6.336;2023-07-29T11:10:05;100285.50;;;21.51;64.87
80777;BME280;70169;51.262;6.336;2023-07-29T11:12:36;100287.84;;;21.57;64.24
80777;BME280;70169;51.262;6.336;2023-07-29T11:14:52;100292.09;;;21.63;63.59
80777;BME280;70169;51.262;6.336;2023-07-29T11:17:07;100277.00;;;21.67;64.60
80777;BME280;70169;51.262;6.336;2023-07-29T11:19:22;100280.72;;;21.72;65.13
80777;BME280;70169;51.262;6.336;2023-07-29T11:21:38;100287.19;;;21.71;64.63
80777;BME280;70169;51.262;6.336;2023-07-29T11:23:53;100288.50;;;21.73;65.47
80777;BME280;70169;51.262;6.336;2023-07-29T11:26:09;100280.44;;;21.73;65.02
80777;BME280;70169;51.262;6.336;2023-07-29T11:28:25;100279.13;;;21.71;65.24
80777;BME280;70169;51.262;6.336;2023-07-29T11:30:41;100281.53;;;21.72;65.19
80777;BME280;70169;51.262;6.336;2023-07-29T11:32:58;100278.28;;;21.75;64.91
80777;BME280;70169;51.262;6.336;2023-07-29T11:35:15;100276.09;;;21.77;65.08
80777;BME280;70169;51.262;6.336;2023-07-29T11:37:33;100272.00;;;21.80;64.39
80777;BME280;70169;51.262;6.336;2023-07-29T11:39:48;100272.84;;;21.80;64.30
80777;BME280;70169;51.262;6.336;2023-07-29T11:42:04;100272.38;;;21.97;65.05
80777;BME280;70169;51.262;6.336;2023-07-29T11:44:19;100259.75;;;22.17;64.36
80777;BME280;70169;51.262;6.336;2023-07-29T11:46:35;100268.16;;;22.34;64.29
80777;BME280;70169;51.262;6.336;2023-07-29T11:48:50;100268.69;;;22.55;64.57
80777;BME280;70169;51.262;6.336;2023-07-29T11:51:06;100274.81;;;22.61;61.57
80777;BME280;70169;51.262;6.336;2023-07-29T11:53:22;100283.06;;;22.51;61.96
80777;BME280;70169;51.262;6.336;2023-07-29T11:55:37;100272.69;;;22.39;63.11
80777;BME280;70169;51.262;6.336;2023-07-29T11:57:53;100271.72;;;22.30;62.69
80777;BME280;70169;51.262;6.336;2023-07-29T12:00:09;100274.16;;;22.26;63.25
80777;BME280;70169;51.262;6.336;2023-07-29T12:02:26;100263.66;;;22.30;62.52